• Join FlightAware (Why Join?)
  • Login
  • US Flag 
09:25PM EDT


 

Airport Tracker/Info


-or-


 

Live Flight TrackerFlight Track Log ✈ DAL6067 ✈ 18-Apr-2013 ✈ KDTW - KCMH

Flight Track Log - Related Links

Times and Time Zones

All times are in EDT time to prevent confusion due to time zone crossing. See the DAL6067 flight status page for this flight to view local times or setup timezone preferences in your user account.

Time Position Orientation Groundspeed Altitude Reporting Facility
EDT Latitude Longitude Course Direction KTS MPH feet Rate Location/Type
12:13PM 42.2017 -83.3553 180° South 144 166 1,400  Level Cleveland Center
12:15PM 42.1406 -83.3750 193° South 194 223 4,400 2,280 Climbing Cleveland Center
12:16PM 41.9599 -83.2991 180° South  Level Estimated
12:17PM 41.8757 -83.2812 180° South  Level Estimated
12:17PM 42.0344 -83.3761 180° South 240 276 8,600  Level Cleveland Center
12:18PM 41.7915 -83.2632 180° South  Level Estimated
12:18PM 41.9678 -83.3731 178° South 235 270 10,200  Level Cleveland Center
12:19PM 41.7073 -83.2453 180° South  Level Estimated
12:19PM 41.8844 -83.3639 175° South 258 297 12,300  Level Cleveland Center
12:20PM 41.8033 -83.3550 175° South 279 321 14,000 1,440 Climbing Cleveland Center
12:21PM 41.7181 -83.3483 177° South 295 339 15,200 960 Climbing Cleveland Center
12:22PM 41.6286 -83.3417 177° South 316 364 16,000 300 Climbing Cleveland Center
12:23PM 41.5328 -83.3406 180° South 335 386 15,900  Descending Cleveland Center
12:24PM 41.4419 -83.3836 200° South 345 397 16,000  Climbing Cleveland Center
12:25PM 41.3533 -83.4353 204° Southwest 345 397 16,000 -120 Level Cleveland Center
12:26PM 41.2606 -83.4725 197° South 350 403 15,800 -120 Descending Cleveland Center
12:27PM 41.1631 -83.4489 170° South 347 399 15,800  Level Cleveland Center
12:28PM 41.0719 -83.4228 168° South 361 415 15,800 -480 Level Cleveland Center
12:29PM 40.9728 -83.3939 168° South 372 428 14,900 -1,140 Descending Cleveland Center
12:30PM 40.8733 -83.3675 169° South 372 428 13,600 -1,440 Descending Cleveland Center
12:31PM 40.7717 -83.3414 169° South 360 414 12,100 -1,620 Descending Cleveland Center
12:32PM 40.6786 -83.3156 168° South 352 405 10,400 -840 Descending Cleveland Center
12:33PM 40.5369 -83.2786 169° South 322 371 9,900 -180 Descending Indianapolis Center
12:34PM 40.4658 -83.2375 156° South 346 398 10,000  Climbing Indianapolis Center
12:35PM 40.3972 -83.1689 143° Southeast 262 302 9,900 -900 Descending Indianapolis Center
12:36PM 40.3425 -83.1133 142° Southeast 253 291 8,200 -1,680 Descending Indianapolis Center
12:37PM 40.2856 -83.0572 143° Southeast 254 292 6,500 -1,080 Descending Indianapolis Center
12:38PM 40.2267 -82.9986 143° Southeast 250 288 6,000 -240 Descending Indianapolis Center
12:39PM 40.1656 -82.9364 142° Southeast 249 287 6,000  Level Indianapolis Center
12:40PM 40.1086 -82.8794 143° Southeast 252 290 6,000  Level Indianapolis Center
12:41PM 40.1025 -82.7908 95° East 266 306 6,000  Level Indianapolis Center
12:42PM 40.1064 -82.7014 87° East 241 277 6,000 -780 Level Indianapolis Center
12:43PM 40.0894 -82.6369 109° East 219 252 4,300 -1,080 Descending Indianapolis Center
12:44PM 40.0469 -82.6511 194° South 154 177 3,900 -660 Descending Indianapolis Center
12:45PM 40.0067 -82.6603 190° South 169 194 3,100 -840 Descending Indianapolis Center